createdAt,value
2017-09-28T00:05:43.000Z,59.682
2017-09-28T00:25:44.000Z,59.802
2017-09-28T00:35:45.000Z,59.775
2017-09-28T00:45:43.000Z,59.772
2017-09-28T00:55:43.000Z,59.884
2017-09-28T01:05:44.000Z,59.86
2017-09-28T01:15:44.000Z,59.865
2017-09-28T01:25:44.000Z,59.883
2017-09-28T01:35:44.000Z,59.847
2017-09-28T01:45:44.000Z,59.843
2017-09-28T01:55:44.000Z,59.797
2017-09-28T02:05:44.000Z,59.792
2017-09-28T02:15:44.000Z,59.69
2017-09-28T02:25:44.000Z,59.688
2017-09-28T02:35:44.000Z,59.555
2017-09-28T02:45:44.000Z,59.694
2017-09-28T02:55:44.000Z,59.699
2017-09-28T03:05:44.000Z,59.784
2017-09-28T03:15:44.000Z,59.761
2017-09-28T03:25:44.000Z,59.78
2017-09-28T03:35:44.000Z,59.712
2017-09-28T03:45:44.000Z,59.752
2017-09-28T03:55:44.000Z,59.664
2017-09-28T04:05:44.000Z,59.694
2017-09-28T04:15:44.000Z,59.636
2017-09-28T04:25:44.000Z,59.624
2017-09-28T04:35:44.000Z,59.6
2017-09-28T04:45:44.000Z,59.607
2017-09-28T04:55:44.000Z,59.625
2017-09-28T05:05:44.000Z,59.505
2017-09-28T05:15:44.000Z,59.352
2017-09-28T05:25:44.000Z,59.297
2017-09-28T05:35:44.000Z,59.519
2017-09-28T05:45:44.000Z,59.473
2017-09-28T05:55:44.000Z,59.375
2017-09-28T06:05:44.000Z,59.34
2017-09-28T06:15:44.000Z,59.447
2017-09-28T06:25:45.000Z,59.556
2017-09-28T06:35:44.000Z,59.353
2017-09-28T06:45:44.000Z,59.4
2017-09-28T06:55:44.000Z,59.355
2017-09-28T07:05:44.000Z,59.352
2017-09-28T07:15:44.000Z,59.307
2017-09-28T07:25:44.000Z,59.264
2017-09-28T07:35:44.000Z,59.189
2017-09-28T07:45:45.000Z,59.031
2017-09-28T07:55:44.000Z,58.904
2017-09-28T08:05:45.000Z,58.957
2017-09-28T08:15:44.000Z,58.979
2017-09-28T08:25:44.000Z,58.979
2017-09-28T08:35:44.000Z,58.905
2017-09-28T08:45:45.000Z,58.801
2017-09-28T08:55:45.000Z,58.644
2017-09-28T09:05:45.000Z,58.539
2017-09-28T09:15:45.000Z,58.424
2017-09-28T09:25:45.000Z,58.416
2017-09-28T09:35:45.000Z,58.344
2017-09-28T09:45:45.000Z,58.23
2017-09-28T09:55:45.000Z,58.18
2017-09-28T10:05:45.000Z,58.15
2017-09-28T10:15:45.000Z,58.681
2017-09-28T10:25:45.000Z,58.933
2017-09-28T10:35:45.000Z,59.053
2017-09-28T10:45:45.000Z,58.806
2017-09-28T10:55:45.000Z,58.652
2017-09-28T11:05:45.000Z,58.666
2017-09-28T11:35:47.000Z,58.408
2017-09-28T11:45:45.000Z,58.326
2017-09-28T11:55:45.000Z,58.285
2017-09-28T12:05:45.000Z,58.339
2017-09-28T12:15:45.000Z,58.267
2017-09-28T12:25:45.000Z,58.494
2017-09-28T12:35:45.000Z,58.583
2017-09-28T13:05:45.000Z,58.843
2017-09-28T13:15:45.000Z,59.124
2017-09-28T13:25:45.000Z,59.274
2017-09-28T13:35:45.000Z,59.127
2017-09-28T13:45:45.000Z,59.133
2017-09-28T13:55:45.000Z,59.126
2017-09-28T14:05:45.000Z,59.108
2017-09-28T14:15:45.000Z,59.172
2017-09-28T14:25:45.000Z,59.268
2017-09-28T14:35:45.000Z,59.121
2017-09-28T14:45:45.000Z,59.26
2017-09-28T14:55:45.000Z,59.313
2017-09-28T15:05:45.000Z,59.422
2017-09-28T15:15:45.000Z,59.444
2017-09-28T15:25:45.000Z,59.402
2017-09-28T15:35:45.000Z,59.477
2017-09-28T15:45:45.000Z,59.595
2017-09-28T15:55:45.000Z,59.714
2017-09-28T16:05:45.000Z,59.933
2017-09-28T16:15:45.000Z,60.044
2017-09-28T16:45:46.000Z,60.175
2017-09-28T16:55:46.000Z,60.326
2017-09-28T17:05:46.000Z,60.476
2017-09-28T17:15:46.000Z,60.517
2017-09-28T17:25:46.000Z,60.692
2017-09-28T17:35:46.000Z,60.793
2017-09-28T17:45:46.000Z,60.872
2017-09-28T17:55:46.000Z,61.241
2017-09-28T18:05:46.000Z,61.973
2017-09-28T18:15:46.000Z,62.382
2017-09-28T18:25:46.000Z,62.904
2017-09-28T18:35:46.000Z,62.897
2017-09-28T18:45:46.000Z,62.91
2017-09-28T18:55:46.000Z,62.925
2017-09-28T19:05:46.000Z,62.717
2017-09-28T19:15:46.000Z,62.405
2017-09-28T19:25:46.000Z,62.29
2017-09-28T19:35:46.000Z,62.149
2017-09-28T19:45:46.000Z,62.177
2017-09-28T19:55:46.000Z,61.778
2017-09-28T20:05:46.000Z,61.531
2017-09-28T20:15:46.000Z,61.552
2017-09-28T20:25:46.000Z,61.415
2017-09-28T20:35:46.000Z,61.222
2017-09-28T20:45:46.000Z,61.429
2017-09-28T20:55:46.000Z,61.575
2017-09-28T21:05:46.000Z,61.624
2017-09-28T21:15:46.000Z,61.625
2017-09-28T21:25:46.000Z,61.643
2017-09-28T21:35:46.000Z,61.649
2017-09-28T21:45:46.000Z,61.678
2017-09-28T21:55:46.000Z,61.704
2017-09-28T22:05:46.000Z,61.691
2017-09-28T22:15:46.000Z,61.804
2017-09-28T22:25:46.000Z,61.823
2017-09-28T22:35:46.000Z,61.81
2017-09-28T22:45:46.000Z,61.745
2017-09-28T22:55:46.000Z,61.676
2017-09-28T23:05:46.000Z,61.653
2017-09-28T23:15:46.000Z,61.619
2017-09-28T23:25:46.000Z,61.627
2017-09-28T23:35:46.000Z,61.625
2017-09-28T23:45:46.000Z,61.625
2017-09-28T23:55:47.000Z,61.75
